Terminal Aerodrome Forecast
Issued by NWS

Home | Current Version | Previous Version | Graphics & Text | Print | Product List | Glossary On
Versions: 1 2 3 4 5 6 7 8 9 10 11 12 13 14 15 16 17 18 19 20 21 22 23 24 25 26 27 28 29
000
FTUS43 KLSX 232341
TAFSUS
TAF
KSUS 232341Z 2400/2424 36004KT P6SM OVC015
     FM240300 01005KT 6SM -RA BR OVC012
     FM240600 03006KT 3SM -RA BR OVC006
     FM241600 09008KT 4SM BR OVC007
     FM242000 12009KT 4SM -SHRA BR VCTS OVC008CB=

USA.gov is the U.S. government's official web portal to all federal, state and local government web resources and services.